Time;durP1;ratioP1;P1;durP2;ratioP2;P2;SDS_P1;SDS_P2;PMS_P1;PMS_P2;Temp;Humidity;BMP_temperature;BMP_pressure;BME280_temperature;BME280_humidity;BME280_pressure;Samples;Min_cycle;Max_cycle;Signal;HPM_P1;HPM_P2
2023/12/30 00:02:22;;;;;;;1.02;1.02;;;9.60;99.90;;;;;;5034108;28;20436;-91
2023/12/30 00:04:47;;;;;;;1.10;1.10;;;9.70;99.90;;;;;;5032437;28;20052;-89
2023/12/30 00:07:13;;;;;;;1.20;1.20;;;9.60;99.90;;;;;;5042842;28;20056;-93
2023/12/30 00:09:40;;;;;;;1.10;1.10;;;9.70;99.90;;;;;;5040707;28;20655;-91
2023/12/30 00:12:06;;;;;;;1.10;1.10;;;9.70;99.90;;;;;;5026918;28;20048;-91
2023/12/30 00:14:32;;;;;;;1.10;1.10;;;9.70;99.90;;;;;;5057564;28;20097;-89
2023/12/30 00:16:58;;;;;;;1.10;1.10;;;9.80;99.90;;;;;;5023902;28;20049;-88
2023/12/30 00:19:24;;;;;;;1.10;1.10;;;9.90;99.90;;;;;;5024276;28;20105;-90
2023/12/30 00:21:49;;;;;;;1.20;1.20;;;9.80;99.90;;;;;;5024408;28;20826;-91
2023/12/30 00:24:18;;;;;;;1.10;1.10;;;9.80;99.90;;;;;;5027738;28;20044;-94
2023/12/30 00:26:44;;;;;;;1.10;1.10;;;9.90;99.90;;;;;;5023217;28;20048;-92
2023/12/30 00:29:12;;;;;;;1.13;1.13;;;9.90;99.90;;;;;;5021137;28;20051;-90
2023/12/30 00:31:37;;;;;;;1.20;1.20;;;9.90;99.90;;;;;;5040133;28;20060;-92
2023/12/30 00:34:03;;;;;;;1.10;1.10;;;9.80;99.90;;;;;;5038947;28;20082;-92
2023/12/30 00:36:30;;;;;;;1.20;1.20;;;9.90;99.90;;;;;;5022687;28;20090;-93
2023/12/30 00:38:56;;;;;;;1.20;1.20;;;9.80;99.90;;;;;;5024679;28;20064;-90
2023/12/30 00:41:22;;;;;;;1.20;1.20;;;9.90;99.90;;;;;;5036956;28;20135;-92
2023/12/30 00:43:48;;;;;;;1.10;1.10;;;9.90;99.90;;;;;;5054847;28;20127;-90
2023/12/30 00:46:14;;;;;;;1.17;1.17;;;9.90;99.90;;;;;;5022700;28;20044;-89
2023/12/30 00:48:40;;;;;;;1.20;1.20;;;9.80;99.90;;;;;;5041105;28;20517;-88
2023/12/30 00:51:06;;;;;;;1.20;1.20;;;9.80;99.90;;;;;;5025541;28;20048;-89
2023/12/30 00:53:31;;;;;;;1.10;1.10;;;9.90;99.90;;;;;;5029227;28;20051;-91
2023/12/30 00:56:02;;;;;;;1.20;1.20;;;9.80;99.90;;;;;;5031561;28;20048;-90
2023/12/30 00:58:28;;;;;;;1.20;1.20;;;9.80;99.90;;;;;;5033120;28;20044;-91
2023/12/30 01:00:54;;;;;;;1.17;1.17;;;9.70;99.90;;;;;;5045074;28;20504;-91
2023/12/30 01:03:20;;;;;;;1.20;1.20;;;9.70;99.90;;;;;;5035875;28;20129;-91
2023/12/30 01:05:46;;;;;;;1.20;1.20;;;9.70;99.90;;;;;;5034883;28;20133;-94
2023/12/30 01:08:12;;;;;;;1.20;1.20;;;9.70;99.90;;;;;;5054828;28;20045;-89
2023/12/30 01:10:38;;;;;;;1.30;1.30;;;9.60;99.90;;;;;;5035800;28;20505;-91
2023/12/30 01:13:10;;;;;;;1.20;1.20;;;9.70;99.90;;;;;;5032662;28;20060;-91
2023/12/30 01:15:38;;;;;;;1.20;1.20;;;9.60;99.90;;;;;;5034982;28;20048;-92
2023/12/30 01:18:04;;;;;;;1.20;1.20;;;9.60;99.90;;;;;;5050884;28;20643;-92
2023/12/30 01:20:30;;;;;;;1.20;1.20;;;9.60;99.90;;;;;;5031520;28;20127;-91
2023/12/30 01:22:56;;;;;;;1.27;1.27;;;9.60;99.90;;;;;;5032422;28;20150;-88
2023/12/30 01:25:22;;;;;;;1.20;1.20;;;9.50;99.90;;;;;;5025152;28;20048;-89
2023/12/30 01:27:48;;;;;;;1.20;1.20;;;9.60;99.90;;;;;;5023564;28;20044;-91
2023/12/30 01:30:14;;;;;;;1.20;1.20;;;9.50;99.90;;;;;;5023771;28;20110;-93
2023/12/30 01:32:40;;;;;;;1.20;1.20;;;9.50;99.90;;;;;;5023615;28;20573;-90
2023/12/30 01:35:06;;;;;;;1.20;1.20;;;9.40;99.90;;;;;;5039996;28;20044;-91
2023/12/30 01:37:33;;;;;;;1.20;1.20;;;9.30;99.90;;;;;;5026203;28;20516;-88
2023/12/30 01:39:59;;;;;;;1.17;1.17;;;9.30;99.90;;;;;;5038816;28;20083;-88
2023/12/30 01:42:25;;;;;;;1.20;1.20;;;9.30;99.90;;;;;;5024294;28;20045;-92
2023/12/30 01:44:50;;;;;;;1.10;1.10;;;9.20;99.90;;;;;;5025253;28;20405;-90
2023/12/30 01:47:17;;;;;;;1.20;1.20;;;9.30;99.90;;;;;;5021339;28;20526;-90
2023/12/30 01:49:44;;;;;;;1.10;1.10;;;9.20;99.90;;;;;;5022828;28;20044;-88
2023/12/30 01:52:11;;;;;;;1.20;1.20;;;9.20;99.90;;;;;;5021963;28;20344;-91
2023/12/30 01:54:39;;;;;;;1.13;1.13;;;9.20;99.90;;;;;;5038192;28;20049;-90
2023/12/30 01:57:06;;;;;;;1.10;1.10;;;9.10;99.90;;;;;;5057227;28;20052;-91
2023/12/30 01:59:32;;;;;;;1.02;1.02;;;9.20;99.90;;;;;;5065708;28;20055;-90
2023/12/30 02:01:59;;;;;;;1.10;1.10;;;9.10;99.90;;;;;;5049091;28;20047;-89
2023/12/30 02:04:25;;;;;;;1.10;1.10;;;9.10;99.90;;;;;;5036935;28;20052;-90
2023/12/30 02:06:51;;;;;;;1.10;1.10;;;9.10;99.90;;;;;;5037325;28;20528;-91
2023/12/30 02:09:17;;;;;;;1.00;1.00;;;9.10;99.90;;;;;;5036231;28;20037;-91
2023/12/30 02:11:43;;;;;;;1.10;1.10;;;9.00;99.90;;;;;;5034820;28;20059;-89
2023/12/30 02:14:29;;;;;;;1.10;1.10;;;9.00;99.90;;;;;;5034747;28;20063;-89
2023/12/30 02:16:55;;;;;;;1.10;1.10;;;8.90;99.90;;;;;;5050637;28;20048;-90
2023/12/30 02:19:21;;;;;;;1.17;1.17;;;8.80;99.90;;;;;;5032882;28;20045;-91
2023/12/30 02:21:49;;;;;;;1.20;1.20;;;8.70;99.90;;;;;;5032634;28;20055;-90
2023/12/30 02:24:15;;;;;;;1.10;1.10;;;8.70;99.90;;;;;;5028902;28;20040;-91
2023/12/30 02:26:40;;;;;;;1.10;1.10;;;8.70;99.90;;;;;;5048281;28;20188;-89
2023/12/30 02:29:07;;;;;;;1.10;1.10;;;8.70;99.90;;;;;;5029986;28;20441;-92
2023/12/30 02:31:38;;;;;;;1.10;1.10;;;8.70;99.90;;;;;;5032098;28;20044;-90
2023/12/30 02:34:04;;;;;;;1.10;1.10;;;8.70;99.90;;;;;;5046046;28;20037;-91
2023/12/30 02:36:29;;;;;;;1.08;1.08;;;8.80;99.90;;;;;;5032107;28;20051;-92
2023/12/30 02:38:56;;;;;;;1.02;1.02;;;8.80;99.90;;;;;;5030372;28;20037;-88
2023/12/30 02:41:22;;;;;;;1.10;1.10;;;8.70;99.90;;;;;;5031011;28;20151;-90
2023/12/30 02:43:59;;;;;;;1.10;1.10;;;8.70;99.90;;;;;;5031759;28;20132;-91
2023/12/30 02:46:25;;;;;;;1.10;1.10;;;8.80;99.90;;;;;;5066498;28;20051;-92
2023/12/30 02:48:51;;;;;;;1.10;1.10;;;8.70;99.90;;;;;;5035441;28;20052;-91
2023/12/30 02:51:18;;;;;;;1.10;1.10;;;8.80;99.90;;;;;;5032488;28;20095;-90
2023/12/30 02:53:43;;;;;;;1.10;1.10;;;8.80;99.90;;;;;;5045029;28;20098;-90
2023/12/30 02:56:26;;;;;;;1.10;1.10;;;8.80;99.90;;;;;;5047647;28;20514;-93
2023/12/30 02:58:57;;;;;;;1.10;1.10;;;8.80;99.90;;;;;;5047643;28;20112;-92
2023/12/30 03:01:27;;;;;;;1.10;1.10;;;8.80;99.90;;;;;;5048155;28;20123;-90
2023/12/30 03:03:55;;;;;;;1.02;1.02;;;8.90;99.90;;;;;;5046109;28;20045;-89
2023/12/30 03:06:21;;;;;;;1.10;1.10;;;8.90;99.90;;;;;;5033274;28;20131;-91
2023/12/30 03:08:48;;;;;;;1.10;1.10;;;8.80;99.90;;;;;;5032719;28;20040;-90
2023/12/30 03:11:14;;;;;;;1.10;1.10;;;8.80;99.90;;;;;;5031163;28;20071;-90
2023/12/30 03:13:40;;;;;;;1.10;1.10;;;8.80;99.90;;;;;;5031468;28;20048;-91
2023/12/30 03:16:06;;;;;;;1.10;1.10;;;8.80;99.90;;;;;;5032311;28;20044;-90
2023/12/30 03:18:32;;;;;;;1.20;1.20;;;8.90;99.90;;;;;;5032436;28;20453;-91
2023/12/30 03:20:58;;;;;;;1.10;1.10;;;8.90;99.90;;;;;;5050921;28;20040;-89
2023/12/30 03:23:24;;;;;;;1.10;1.10;;;8.90;99.90;;;;;;5042436;28;20137;-91
2023/12/30 03:25:53;;;;;;;1.10;1.10;;;8.80;99.90;;;;;;5033476;28;20059;-89
2023/12/30 03:28:19;;;;;;;1.10;1.10;;;8.80;99.90;;;;;;5031379;28;20044;-88
2023/12/30 03:30:45;;;;;;;1.00;1.00;;;8.70;99.90;;;;;;5048223;28;20106;-94
2023/12/30 03:33:14;;;;;;;1.05;1.05;;;8.80;99.90;;;;;;5063519;28;20044;-92
2023/12/30 03:35:40;;;;;;;1.02;1.02;;;8.80;99.90;;;;;;5032805;28;20712;-90
2023/12/30 03:38:05;;;;;;;1.10;1.10;;;8.90;99.90;;;;;;5048684;28;20041;-91
2023/12/30 03:40:31;;;;;;;1.10;1.10;;;8.80;99.90;;;;;;5032965;28;20048;-91
2023/12/30 03:42:57;;;;;;;1.10;1.10;;;8.80;99.90;;;;;;5035111;28;20089;-89
2023/12/30 03:45:22;;;;;;;1.15;1.15;;;8.80;99.90;;;;;;5032660;28;20041;-88
2023/12/30 03:47:48;;;;;;;1.10;1.10;;;8.80;99.90;;;;;;5029498;28;20050;-91
2023/12/30 03:50:14;;;;;;;1.10;1.10;;;8.80;99.90;;;;;;5031509;28;20053;-90
2023/12/30 03:52:40;;;;;;;1.10;1.10;;;8.80;99.90;;;;;;5031870;28;20131;-90
2023/12/30 03:55:06;;;;;;;1.10;1.10;;;8.70;99.90;;;;;;5031095;28;20151;-87
2023/12/30 03:57:31;;;;;;;1.10;1.10;;;8.80;99.90;;;;;;5030764;28;20040;-88
2023/12/30 03:59:57;;;;;;;1.00;1.00;;;8.80;99.90;;;;;;5047559;28;20074;-90
2023/12/30 04:02:23;;;;;;;1.00;1.00;;;8.80;99.90;;;;;;5034262;28;20056;-91
2023/12/30 04:04:49;;;;;;;1.10;1.10;;;8.80;99.90;;;;;;5032486;28;20045;-90
2023/12/30 04:07:17;;;;;;;1.00;1.00;;;8.80;99.90;;;;;;5030397;28;20048;-91
2023/12/30 04:09:43;;;;;;;1.10;1.10;;;8.70;99.90;;;;;;5061586;28;20037;-89
2023/12/30 04:12:10;;;;;;;1.10;1.10;;;8.80;99.90;;;;;;5032777;28;20044;-90
2023/12/30 04:14:35;;;;;;;1.10;1.10;;;8.80;99.90;;;;;;5031547;28;20074;-89
2023/12/30 04:17:01;;;;;;;1.10;1.10;;;8.70;99.90;;;;;;5033728;28;20040;-90
2023/12/30 04:19:27;;;;;;;1.10;1.10;;;8.80;99.90;;;;;;5033648;28;20127;-92
2023/12/30 04:21:53;;;;;;;1.10;1.10;;;8.70;99.90;;;;;;5031350;28;20041;-91
2023/12/30 04:24:19;;;;;;;1.10;1.10;;;8.70;99.90;;;;;;5032333;28;20045;-92
2023/12/30 04:26:45;;;;;;;1.10;1.10;;;8.60;99.90;;;;;;5032444;28;20551;-90
2023/12/30 04:29:11;;;;;;;1.10;1.10;;;8.60;99.90;;;;;;5033657;28;20055;-88
2023/12/30 04:31:37;;;;;;;1.02;1.02;;;8.60;99.90;;;;;;5031844;28;20048;-90
2023/12/30 04:34:03;;;;;;;1.10;1.10;;;8.60;99.90;;;;;;5046090;28;20075;-90
2023/12/30 04:36:28;;;;;;;1.08;1.08;;;8.60;99.90;;;;;;5048579;28;20040;-91
2023/12/30 04:38:54;;;;;;;1.10;1.10;;;8.60;99.90;;;;;;5029014;28;20102;-90
2023/12/30 04:41:20;;;;;;;1.10;1.10;;;8.60;99.90;;;;;;5031915;28;20537;-90
2023/12/30 04:43:46;;;;;;;1.13;1.13;;;8.60;99.90;;;;;;5034047;28;20040;-89
2023/12/30 04:46:12;;;;;;;1.10;1.10;;;8.50;99.90;;;;;;5047553;28;20144;-90
2023/12/30 04:48:38;;;;;;;1.10;1.10;;;8.50;99.90;;;;;;5029772;28;20066;-89
2023/12/30 04:51:04;;;;;;;1.08;1.08;;;8.50;99.90;;;;;;5031122;28;20040;-90
2023/12/30 04:53:30;;;;;;;1.10;1.10;;;8.40;99.90;;;;;;5030175;28;20064;-89
2023/12/30 04:55:55;;;;;;;1.13;1.13;;;8.50;99.90;;;;;;5030110;28;20201;-91
2023/12/30 04:58:21;;;;;;;1.05;1.05;;;8.50;99.90;;;;;;5033706;28;20044;-90
2023/12/30 05:00:47;;;;;;;1.15;1.15;;;8.40;99.90;;;;;;5049895;28;20051;-90
2023/12/30 05:03:15;;;;;;;1.10;1.10;;;8.40;99.90;;;;;;5033692;28;20047;-89
2023/12/30 05:05:41;;;;;;;1.10;1.10;;;8.60;99.90;;;;;;5032324;28;20040;-90
2023/12/30 05:08:07;;;;;;;1.10;1.10;;;8.50;99.90;;;;;;5034038;28;20124;-88
2023/12/30 05:10:33;;;;;;;1.10;1.10;;;8.50;99.90;;;;;;5049737;28;20048;-89
2023/12/30 05:13:02;;;;;;;1.13;1.13;;;8.50;99.90;;;;;;5033930;28;20071;-91
2023/12/30 05:15:27;;;;;;;1.20;1.20;;;8.50;99.90;;;;;;5034968;28;20063;-89
2023/12/30 05:17:54;;;;;;;1.10;1.10;;;8.50;99.90;;;;;;5052044;28;20108;-89
2023/12/30 05:20:20;;;;;;;1.15;1.15;;;8.50;99.90;;;;;;5037806;28;20045;-91
2023/12/30 05:22:46;;;;;;;1.10;1.10;;;8.50;99.90;;;;;;5052639;28;20075;-89
2023/12/30 05:25:12;;;;;;;1.05;1.05;;;8.50;99.90;;;;;;5052458;28;20079;-90
2023/12/30 05:27:38;;;;;;;1.10;1.10;;;8.60;99.90;;;;;;5034769;28;20048;-91
2023/12/30 05:30:08;;;;;;;1.15;1.15;;;8.50;99.90;;;;;;5050340;28;20040;-92
2023/12/30 05:32:34;;;;;;;1.10;1.10;;;8.50;99.90;;;;;;5035490;28;20432;-92
2023/12/30 05:35:00;;;;;;;1.08;1.08;;;8.50;99.90;;;;;;5029250;28;20056;-89
2023/12/30 05:37:26;;;;;;;1.20;1.20;;;8.50;99.90;;;;;;5046741;28;20053;-90
2023/12/30 05:39:52;;;;;;;1.10;1.10;;;8.50;99.90;;;;;;5030738;28;20159;-89
2023/12/30 05:42:17;;;;;;;1.08;1.08;;;8.60;99.90;;;;;;5016440;28;20089;-89
2023/12/30 05:44:43;;;;;;;1.13;1.13;;;8.70;99.90;;;;;;5017386;28;20135;-87
2023/12/30 05:47:09;;;;;;;1.15;1.15;;;8.70;99.90;;;;;;5041236;28;20045;-91
2023/12/30 05:49:39;;;;;;;1.10;1.10;;;8.70;99.90;;;;;;5034360;28;20041;-90
2023/12/30 05:52:05;;;;;;;1.00;1.00;;;8.70;99.90;;;;;;5048867;28;20048;-91
2023/12/30 05:54:31;;;;;;;1.15;1.15;;;8.70;99.90;;;;;;5031759;28;20044;-88
2023/12/30 05:56:57;;;;;;;1.15;1.15;;;8.70;99.90;;;;;;5034208;28;20047;-90
2023/12/30 05:59:22;;;;;;;1.17;1.17;;;8.60;99.90;;;;;;5035027;28;20044;-89
2023/12/30 06:01:49;;;;;;;1.15;1.15;;;8.60;99.90;;;;;;5033671;28;20047;-89
2023/12/30 06:04:15;;;;;;;1.05;1.05;;;8.70;99.90;;;;;;5031908;28;20041;-89
2023/12/30 06:06:42;;;;;;;1.00;1.00;;;8.70;99.90;;;;;;5034206;28;20629;-90
2023/12/30 06:09:08;;;;;;;1.20;1.20;;;8.60;99.90;;;;;;5047788;28;20502;-89
2023/12/30 06:11:33;;;;;;;1.13;1.13;;;8.70;99.90;;;;;;5030949;28;20091;-89
2023/12/30 06:13:59;;;;;;;1.20;1.20;;;8.70;99.90;;;;;;5049173;28;20076;-88
2023/12/30 06:16:25;;;;;;;1.08;1.08;;;8.60;99.90;;;;;;5050491;28;20037;-87
2023/12/30 06:18:51;;;;;;;1.15;1.15;;;8.50;99.90;;;;;;5050339;28;20044;-91
2023/12/30 06:21:17;;;;;;;1.02;1.02;;;8.50;99.90;;;;;;5032429;28;20072;-89
2023/12/30 06:23:42;;;;;;;1.88;1.77;;;8.60;99.90;;;;;;5031909;28;20037;-90
2023/12/30 06:26:08;;;;;;;1.10;1.10;;;8.50;99.90;;;;;;5033929;28;20043;-89
2023/12/30 06:28:34;;;;;;;1.10;1.10;;;8.60;99.90;;;;;;5032893;28;20572;-88
2023/12/30 06:31:00;;;;;;;1.20;1.20;;;8.60;99.90;;;;;;5029468;28;20095;-91
2023/12/30 06:33:25;;;;;;;1.10;1.10;;;8.50;99.90;;;;;;5049047;28;20052;-89
2023/12/30 06:35:51;;;;;;;1.10;1.10;;;8.50;99.90;;;;;;5032764;28;20101;-90
2023/12/30 06:38:17;;;;;;;1.13;1.13;;;8.50;99.90;;;;;;5032887;28;20036;-91
2023/12/30 06:40:45;;;;;;;1.10;1.10;;;8.40;99.90;;;;;;5032558;28;20047;-87
2023/12/30 06:43:11;;;;;;;1.15;1.15;;;8.30;99.90;;;;;;5047134;28;20041;-92
2023/12/30 06:45:37;;;;;;;1.15;1.15;;;8.50;99.90;;;;;;5031924;28;20053;-90
2023/12/30 06:48:04;;;;;;;1.10;1.10;;;8.40;99.90;;;;;;5032788;28;20048;-91
2023/12/30 06:50:29;;;;;;;1.10;1.10;;;8.30;99.90;;;;;;5034259;28;20656;-90
2023/12/30 06:52:56;;;;;;;1.10;1.10;;;8.40;99.90;;;;;;5048215;28;20041;-90
2023/12/30 06:55:22;;;;;;;1.15;1.15;;;8.30;99.90;;;;;;5048821;28;20415;-90
2023/12/30 06:57:48;;;;;;;1.17;1.17;;;8.20;99.90;;;;;;5048251;28;20048;-89
2023/12/30 07:00:14;;;;;;;1.10;1.10;;;8.30;99.90;;;;;;5031298;28;20051;-88
2023/12/30 07:02:41;;;;;;;1.10;1.10;;;8.30;99.90;;;;;;5045954;28;20044;-87
2023/12/30 07:05:10;;;;;;;1.10;1.10;;;8.20;99.90;;;;;;5030543;28;20186;-89
2023/12/30 07:07:36;;;;;;;1.10;1.10;;;8.30;99.90;;;;;;5048465;28;20131;-89
2023/12/30 07:10:06;;;;;;;1.10;1.10;;;8.20;99.90;;;;;;5031704;28;20127;-89
2023/12/30 07:12:32;;;;;;;1.10;1.10;;;8.20;99.90;;;;;;5045276;28;20063;-89
2023/12/30 07:14:57;;;;;;;1.10;1.10;;;8.30;99.90;;;;;;5047734;28;20048;-89
2023/12/30 07:17:23;;;;;;;1.10;1.10;;;8.20;99.90;;;;;;5029014;28;20044;-89
2023/12/30 07:19:49;;;;;;;1.10;1.10;;;8.10;99.90;;;;;;5030528;28;20080;-89
2023/12/30 07:22:18;;;;;;;1.00;1.00;;;8.20;99.90;;;;;;5033024;28;20071;-90
2023/12/30 07:24:45;;;;;;;1.10;1.10;;;8.10;99.90;;;;;;5030749;28;20032;-90
2023/12/30 07:27:11;;;;;;;1.10;1.10;;;8.10;99.90;;;;;;5029613;28;20063;-89
2023/12/30 07:29:37;;;;;;;1.00;1.00;;;8.20;99.90;;;;;;5028958;28;20057;-89
2023/12/30 07:32:05;;;;;;;1.10;1.10;;;8.20;99.90;;;;;;5043834;28;20109;-89
2023/12/30 07:34:31;;;;;;;1.00;1.00;;;8.10;99.90;;;;;;5046302;28;20036;-88
2023/12/30 07:36:58;;;;;;;1.00;1.00;;;8.10;99.90;;;;;;5030707;28;20036;-87
2023/12/30 07:39:24;;;;;;;1.10;1.10;;;8.10;99.90;;;;;;5047478;28;20107;-92
2023/12/30 07:41:49;;;;;;;1.00;1.00;;;8.10;99.90;;;;;;5032859;28;20053;-87
2023/12/30 07:44:15;;;;;;;1.00;1.00;;;8.20;99.90;;;;;;5030123;28;20055;-89
2023/12/30 07:46:41;;;;;;;1.05;1.05;;;8.20;99.90;;;;;;5032757;28;20048;-90
2023/12/30 07:49:07;;;;;;;1.00;1.00;;;8.10;99.90;;;;;;5032898;28;20409;-88
2023/12/30 07:51:34;;;;;;;1.00;1.00;;;8.30;99.90;;;;;;5032402;28;20059;-88
2023/12/30 07:54:00;;;;;;;1.10;1.10;;;8.20;99.90;;;;;;5031465;28;20444;-89
2023/12/30 07:56:25;;;;;;;1.10;1.10;;;8.20;99.90;;;;;;5047427;28;20045;-90
2023/12/30 07:58:52;;;;;;;1.10;1.10;;;8.30;99.90;;;;;;5047207;28;20060;-89
2023/12/30 08:01:18;;;;;;;1.00;1.00;;;8.30;99.90;;;;;;5030940;28;20048;-90
2023/12/30 08:03:43;;;;;;;1.10;1.10;;;8.40;99.90;;;;;;5031600;28;20128;-89
2023/12/30 08:06:09;;;;;;;1.00;1.00;;;8.40;99.90;;;;;;5029458;28;20048;-89
2023/12/30 08:08:35;;;;;;;1.10;1.10;;;8.30;99.90;;;;;;5036663;28;20076;-89
2023/12/30 08:11:00;;;;;;;1.10;1.10;;;8.30;99.90;;;;;;5031054;28;20135;-89
2023/12/30 08:13:26;;;;;;;1.10;1.10;;;8.40;99.90;;;;;;5030680;28;20041;-90
2023/12/30 08:15:52;;;;;;;1.00;1.00;;;8.50;99.90;;;;;;5045499;28;20046;-88
2023/12/30 08:18:17;;;;;;;1.00;1.00;;;8.50;99.90;;;;;;5033736;28;20084;-89
2023/12/30 08:20:43;;;;;;;1.20;1.20;;;8.60;99.90;;;;;;5034658;28;20051;-89
2023/12/30 08:23:09;;;;;;;1.10;1.10;;;8.60;99.90;;;;;;5030440;28;20044;-90
2023/12/30 08:25:34;;;;;;;1.10;1.10;;;8.50;99.90;;;;;;5032855;28;20055;-89
2023/12/30 08:28:00;;;;;;;1.17;1.17;;;8.70;99.90;;;;;;5065121;28;20052;-92
2023/12/30 08:30:26;;;;;;;1.20;1.20;;;8.70;99.90;;;;;;5044159;28;20044;-88
2023/12/30 08:32:51;;;;;;;1.23;1.23;;;8.70;99.90;;;;;;5045380;28;20055;-89
2023/12/30 08:35:17;;;;;;;1.33;1.33;;;8.80;99.90;;;;;;5035728;28;20036;-88
2023/12/30 08:37:43;;;;;;;1.15;1.15;;;8.80;99.90;;;;;;5036899;28;20098;-89
2023/12/30 08:40:10;;;;;;;1.25;1.25;;;8.80;99.90;;;;;;5033156;28;20490;-91
2023/12/30 08:42:37;;;;;;;1.20;1.20;;;8.80;99.90;;;;;;5048822;28;20045;-90
2023/12/30 08:45:06;;;;;;;1.30;1.30;;;8.90;99.90;;;;;;5049093;28;20033;-88
2023/12/30 08:47:34;;;;;;;1.10;1.10;;;9.00;99.90;;;;;;5035439;28;20567;-90
2023/12/30 08:50:00;;;;;;;1.30;1.30;;;9.00;99.90;;;;;;5035290;28;20048;-90
2023/12/30 08:52:25;;;;;;;1.20;1.20;;;9.00;99.90;;;;;;5031422;28;20563;-89
2023/12/30 08:54:51;;;;;;;1.30;1.30;;;9.10;99.90;;;;;;5052049;28;20048;-91
2023/12/30 08:57:18;;;;;;;1.20;1.20;;;9.10;99.90;;;;;;5034627;28;20055;-89
2023/12/30 08:59:44;;;;;;;1.33;1.33;;;9.20;99.90;;;;;;5033679;28;20050;-90
2023/12/30 09:02:09;;;;;;;1.30;1.30;;;9.20;99.90;;;;;;5029558;28;20044;-90
2023/12/30 09:04:35;;;;;;;1.50;1.40;;;9.30;99.90;;;;;;5030792;28;20052;-90
2023/12/30 09:07:01;;;;;;;1.30;1.30;;;9.30;99.90;;;;;;5031409;28;20075;-89
2023/12/30 09:09:26;;;;;;;1.50;1.40;;;9.30;99.90;;;;;;5033784;28;20110;-89
2023/12/30 09:11:52;;;;;;;1.60;1.50;;;9.30;99.90;;;;;;5035593;28;20074;-89
2023/12/30 09:14:18;;;;;;;1.60;1.50;;;9.30;99.90;;;;;;5050570;28;20036;-89
2023/12/30 09:16:44;;;;;;;1.60;1.50;;;9.30;99.90;;;;;;5034588;28;20045;-89
2023/12/30 09:19:10;;;;;;;1.55;1.45;;;9.40;99.90;;;;;;5047105;28;20044;-88
2023/12/30 09:21:35;;;;;;;1.60;1.50;;;9.50;99.90;;;;;;5050095;28;20044;-89
2023/12/30 09:24:01;;;;;;;1.70;1.60;;;9.50;99.90;;;;;;5049328;28;20044;-89
2023/12/30 09:26:28;;;;;;;1.63;1.52;;;9.60;99.90;;;;;;5048625;28;20074;-89
2023/12/30 09:28:54;;;;;;;1.58;1.48;;;9.70;99.90;;;;;;5058318;28;20044;-87
2023/12/30 09:31:20;;;;;;;1.65;1.55;;;9.70;99.90;;;;;;5030732;28;20040;-89
2023/12/30 09:33:48;;;;;;;1.77;1.67;;;9.70;99.90;;;;;;5033131;28;20387;-88
2023/12/30 09:36:13;;;;;;;1.75;1.65;;;9.70;99.90;;;;;;5044838;28;20131;-87
2023/12/30 09:38:39;;;;;;;1.80;1.70;;;9.70;99.90;;;;;;5033134;28;20123;-88
2023/12/30 09:41:05;;;;;;;1.77;1.67;;;9.80;99.90;;;;;;5046593;28;20040;-89
2023/12/30 09:43:32;;;;;;;1.73;1.63;;;9.90;99.90;;;;;;5030342;28;20613;-88
2023/12/30 09:45:58;;;;;;;1.90;1.80;;;9.90;99.90;;;;;;5031570;28;20059;-88
2023/12/30 09:48:25;;;;;;;1.80;1.70;;;9.90;99.90;;;;;;5034015;28;20563;-90
2023/12/30 09:50:52;;;;;;;1.80;1.70;;;9.90;99.90;;;;;;5031969;28;20090;-89
2023/12/30 09:53:22;;;;;;;1.90;1.80;;;10.00;99.90;;;;;;5031898;28;20054;-89
2023/12/30 09:55:50;;;;;;;1.63;1.52;;;9.90;99.90;;;;;;5046902;28;20051;-88
2023/12/30 09:58:18;;;;;;;1.70;1.60;;;10.00;99.90;;;;;;5033013;28;20052;-88
2023/12/30 10:00:43;;;;;;;1.60;1.50;;;10.00;99.90;;;;;;5032646;28;20509;-89
2023/12/30 10:03:10;;;;;;;1.60;1.50;;;10.10;99.90;;;;;;5031015;28;20044;-89
2023/12/30 10:05:36;;;;;;;1.60;1.50;;;10.20;99.90;;;;;;5047118;28;20040;-87
2023/12/30 10:08:05;;;;;;;1.60;1.50;;;10.10;99.90;;;;;;5050332;28;20063;-89
2023/12/30 10:10:47;;;;;;;1.70;1.60;;;10.10;99.90;;;;;;5046561;28;20191;-90
2023/12/30 10:13:16;;;;;;;1.48;1.40;;;10.20;99.90;;;;;;5046875;28;20044;-88
2023/12/30 10:15:42;;;;;;;1.70;1.60;;;10.20;99.90;;;;;;5032916;28;20044;-88
2023/12/30 10:18:08;;;;;;;1.55;1.45;;;10.20;99.90;;;;;;5031454;28;20135;-89
2023/12/30 10:20:40;;;;;;;1.60;1.50;;;10.30;99.90;;;;;;5048715;28;20707;-87
2023/12/30 10:23:07;;;;;;;1.50;1.40;;;10.30;99.90;;;;;;5032359;28;20300;-90
2023/12/30 10:25:33;;;;;;;1.50;1.40;;;10.40;99.90;;;;;;5065538;28;20049;-87
2023/12/30 10:27:58;;;;;;;1.63;1.52;;;10.40;99.90;;;;;;5033001;28;20389;-89
2023/12/30 10:30:24;;;;;;;1.73;1.63;;;10.40;99.90;;;;;;5047981;28;20126;-89
2023/12/30 10:32:50;;;;;;;1.30;1.30;;;10.40;99.90;;;;;;5032162;28;20055;-87
2023/12/30 10:35:16;;;;;;;1.73;1.63;;;10.50;99.90;;;;;;5048172;28;20094;-88
2023/12/30 10:37:42;;;;;;;1.30;1.30;;;10.60;99.90;;;;;;5030837;28;20064;-88
2023/12/30 10:40:09;;;;;;;1.75;1.65;;;10.60;99.90;;;;;;5031446;28;20375;-89
2023/12/30 10:42:39;;;;;;;1.30;1.30;;;10.70;99.90;;;;;;5030378;28;20143;-89
2023/12/30 10:45:06;;;;;;;1.50;1.42;;;10.70;99.90;;;;;;5041941;28;20044;-88
2023/12/30 10:47:42;;;;;;;1.30;1.30;;;10.70;99.90;;;;;;5049222;28;20149;-90
2023/12/30 10:50:09;;;;;;;1.20;1.20;;;10.70;99.90;;;;;;5047362;28;20056;-89
2023/12/30 10:52:59;;;;;;;1.25;1.25;;;10.80;99.90;;;;;;5046900;28;20420;-88
2023/12/30 10:55:32;;;;;;;1.25;1.25;;;10.80;99.90;;;;;;5047628;28;20429;-90
2023/12/30 10:58:03;;;;;;;1.20;1.20;;;10.90;99.90;;;;;;5031076;28;20073;-88
2023/12/30 11:00:36;;;;;;;1.17;1.17;;;11.00;99.90;;;;;;5047318;28;20593;-89
2023/12/30 11:03:05;;;;;;;1.63;1.52;;;11.10;99.90;;;;;;5047253;28;20159;-90
2023/12/30 11:05:43;;;;;;;1.27;1.27;;;11.10;99.90;;;;;;5029507;28;20043;-87
2023/12/30 11:08:09;;;;;;;1.20;1.20;;;11.10;99.90;;;;;;5046232;28;20060;-88
2023/12/30 11:10:35;;;;;;;1.27;1.27;;;11.10;99.90;;;;;;5048558;28;20102;-88
2023/12/30 11:13:00;;;;;;;1.20;1.20;;;11.20;99.90;;;;;;5030444;28;20559;-89
2023/12/30 11:15:28;;;;;;;1.38;1.38;;;11.20;99.90;;;;;;5048847;28;20055;-89
2023/12/30 11:17:56;;;;;;;1.40;1.40;;;11.30;99.90;;;;;;5045004;28;20052;-88
2023/12/30 11:20:27;;;;;;;2.30;2.20;;;11.30;99.90;;;;;;5034991;28;20143;-90
2023/12/30 11:22:56;;;;;;;1.77;1.67;;;11.40;99.90;;;;;;5047290;28;20044;-91
2023/12/30 11:25:22;;;;;;;1.45;1.42;;;11.40;99.90;;;;;;5031694;28;20032;-89
2023/12/30 11:28:10;;;;;;;2.10;2.00;;;11.50;99.90;;;;;;5031486;28;20415;-88
2023/12/30 11:30:36;;;;;;;1.73;1.63;;;11.60;99.90;;;;;;5045043;28;20573;-88
2023/12/30 11:33:02;;;;;;;2.20;2.10;;;11.40;99.90;;;;;;5046861;28;20493;-88
2023/12/30 11:35:28;;;;;;;2.35;2.25;;;11.40;99.90;;;;;;5031627;28;20660;-89
2023/12/30 11:37:56;;;;;;;1.70;1.60;;;11.40;99.90;;;;;;5029933;28;20044;-87
2023/12/30 11:40:24;;;;;;;1.90;1.80;;;11.50;99.90;;;;;;5031025;28;20124;-88
2023/12/30 11:42:50;;;;;;;2.35;2.25;;;11.60;99.90;;;;;;5047552;28;20051;-88
2023/12/30 11:45:16;;;;;;;2.70;2.60;;;11.60;99.90;;;;;;5045882;28;20048;-89
2023/12/30 11:47:45;;;;;;;2.55;2.45;;;11.60;99.90;;;;;;5046170;28;20052;-89
2023/12/30 11:50:12;;;;;;;2.78;2.67;;;11.60;99.90;;;;;;5047592;28;20105;-88
2023/12/30 11:52:41;;;;;;;2.00;1.90;;;11.60;99.90;;;;;;5030871;28;20036;-89
2023/12/30 11:55:07;;;;;;;2.13;2.03;;;11.50;99.90;;;;;;5064630;28;20433;-87
2023/12/30 11:57:33;;;;;;;2.00;1.90;;;11.50;99.90;;;;;;5044888;28;20056;-87
2023/12/30 11:59:59;;;;;;;2.03;1.92;;;11.50;99.90;;;;;;5047318;28;20553;-88
2023/12/30 12:02:28;;;;;;;2.10;2.00;;;11.70;99.90;;;;;;5028242;28;20139;-89
2023/12/30 12:04:54;;;;;;;3.00;2.80;;;11.90;99.90;;;;;;5030179;28;20106;-88
2023/12/30 12:07:19;;;;;;;2.42;2.33;;;11.90;99.90;;;;;;5028053;28;20041;-88
2023/12/30 12:09:45;;;;;;;3.17;2.97;;;11.80;99.90;;;;;;5046705;28;20047;-89
2023/12/30 12:12:14;;;;;;;2.72;2.63;;;11.80;99.90;;;;;;5028936;28;20083;-86
2023/12/30 12:14:50;;;;;;;2.40;2.30;;;11.90;99.90;;;;;;5043797;28;20587;-89
2023/12/30 12:17:18;;;;;;;3.45;3.25;;;11.90;99.90;;;;;;5043708;28;20052;-89
2023/12/30 12:19:45;;;;;;;3.55;3.35;;;11.80;99.90;;;;;;5029004;28;20106;-88
2023/12/30 12:22:13;;;;;;;2.20;2.10;;;11.80;99.90;;;;;;5034890;28;20052;-88
2023/12/30 12:24:40;;;;;;;3.22;3.03;;;11.70;99.90;;;;;;5046663;28;20044;-88
2023/12/30 12:27:06;;;;;;;2.33;2.22;;;11.70;99.90;;;;;;5052754;28;20048;-88
2023/12/30 12:29:32;;;;;;;2.22;2.13;;;11.80;99.90;;;;;;5028181;28;20045;-89
2023/12/30 12:31:58;;;;;;;2.35;2.25;;;11.80;99.90;;;;;;5036941;28;20181;-90
2023/12/30 12:34:25;;;;;;;2.67;2.58;;;11.80;99.90;;;;;;5046985;28;20151;-88
2023/12/30 12:36:51;;;;;;;2.33;2.22;;;11.80;99.90;;;;;;5049368;28;20090;-89
2023/12/30 12:39:17;;;;;;;3.55;3.35;;;11.80;99.90;;;;;;5046599;28;20041;-88
2023/12/30 12:41:45;;;;;;;3.55;3.35;;;11.80;99.90;;;;;;5048259;28;20051;-90
2023/12/30 12:44:11;;;;;;;2.50;2.40;;;11.90;99.90;;;;;;5027775;28;20481;-88
2023/12/30 12:46:37;;;;;;;3.65;3.45;;;11.90;99.90;;;;;;5044684;28;20083;-90
2023/12/30 12:49:03;;;;;;;4.60;4.30;;;12.00;99.90;;;;;;5042632;28;20048;-89
2023/12/30 12:51:32;;;;;;;2.90;2.80;;;12.00;99.90;;;;;;5027182;28;20040;-89
2023/12/30 12:53:57;;;;;;;3.25;3.05;;;12.00;99.90;;;;;;5025317;28;20055;-90